sensor_id;sensor_type;location;lat;lon;timestamp;temperature;humidity
11214;DHT22;5664;48.606;13.456;2023-04-15T00:00:05;20.00;60.20
11214;DHT22;5664;48.606;13.456;2023-04-15T00:02:30;20.00;59.50
11214;DHT22;5664;48.606;13.456;2023-04-15T00:04:56;20.00;59.50
11214;DHT22;5664;48.606;13.456;2023-04-15T00:07:21;20.00;59.50
11214;DHT22;5664;48.606;13.456;2023-04-15T00:09:47;20.00;59.60
11214;DHT22;5664;48.606;13.456;2023-04-15T00:12:12;20.00;59.50
11214;DHT22;5664;48.606;13.456;2023-04-15T00:14:38;20.00;59.60
11214;DHT22;5664;48.606;13.456;2023-04-15T00:17:03;20.00;59.60
11214;DHT22;5664;48.606;13.456;2023-04-15T00:19:29;20.00;59.60
11214;DHT22;5664;48.606;13.456;2023-04-15T00:21:55;20.00;59.60
11214;DHT22;5664;48.606;13.456;2023-04-15T00:24:21;19.90;59.60
11214;DHT22;5664;48.606;13.456;2023-04-15T00:26:47;19.90;59.60
11214;DHT22;5664;48.606;13.456;2023-04-15T00:29:13;19.90;59.60
11214;DHT22;5664;48.606;13.456;2023-04-15T00:31:39;19.90;59.60
11214;DHT22;5664;48.606;13.456;2023-04-15T00:34:05;19.90;59.60
11214;DHT22;5664;48.606;13.456;2023-04-15T00:36:30;19.90;59.60
11214;DHT22;5664;48.606;13.456;2023-04-15T00:38:56;19.90;59.60
11214;DHT22;5664;48.606;13.456;2023-04-15T00:41:21;19.90;59.60
11214;DHT22;5664;48.606;13.456;2023-04-15T00:43:47;19.90;59.60
11214;DHT22;5664;48.606;13.456;2023-04-15T00:46:13;19.90;59.70
11214;DHT22;5664;48.606;13.456;2023-04-15T00:48:40;19.90;59.60
11214;DHT22;5664;48.606;13.456;2023-04-15T00:51:06;19.90;59.70
11214;DHT22;5664;48.606;13.456;2023-04-15T00:53:32;19.90;59.70
11214;DHT22;5664;48.606;13.456;2023-04-15T00:55:58;19.90;59.70
11214;DHT22;5664;48.606;13.456;2023-04-15T00:58:23;19.90;59.80
11214;DHT22;5664;48.606;13.456;2023-04-15T01:00:49;19.90;59.70
11214;DHT22;5664;48.606;13.456;2023-04-15T01:03:18;19.80;59.70
11214;DHT22;5664;48.606;13.456;2023-04-15T01:05:44;19.80;59.70
11214;DHT22;5664;48.606;13.456;2023-04-15T01:08:10;19.80;59.70
11214;DHT22;5664;48.606;13.456;2023-04-15T01:10:35;19.80;59.70
11214;DHT22;5664;48.606;13.456;2023-04-15T01:13:01;19.80;59.70
11214;DHT22;5664;48.606;13.456;2023-04-15T01:15:27;19.80;59.70
11214;DHT22;5664;48.606;13.456;2023-04-15T01:17:52;19.80;59.80
11214;DHT22;5664;48.606;13.456;2023-04-15T01:20:18;19.80;59.80
11214;DHT22;5664;48.606;13.456;2023-04-15T01:22:44;19.80;59.80
11214;DHT22;5664;48.606;13.456;2023-04-15T01:25:15;19.80;59.80
11214;DHT22;5664;48.606;13.456;2023-04-15T01:27:42;19.80;59.80
11214;DHT22;5664;48.606;13.456;2023-04-15T01:30:08;19.80;59.80
11214;DHT22;5664;48.606;13.456;2023-04-15T01:32:34;19.80;59.80
11214;DHT22;5664;48.606;13.456;2023-04-15T01:35:00;19.80;59.80
11214;DHT22;5664;48.606;13.456;2023-04-15T01:37:25;19.80;59.90
11214;DHT22;5664;48.606;13.456;2023-04-15T01:39:51;19.70;59.80
11214;DHT22;5664;48.606;13.456;2023-04-15T01:42:17;19.70;59.90
11214;DHT22;5664;48.606;13.456;2023-04-15T01:44:42;19.70;59.80
11214;DHT22;5664;48.606;13.456;2023-04-15T01:47:08;19.70;59.90
11214;DHT22;5664;48.606;13.456;2023-04-15T01:49:33;19.70;59.90
11214;DHT22;5664;48.606;13.456;2023-04-15T01:51:59;19.70;59.90
11214;DHT22;5664;48.606;13.456;2023-04-15T01:54:25;19.70;59.90
11214;DHT22;5664;48.606;13.456;2023-04-15T01:56:50;19.70;60.00
11214;DHT22;5664;48.606;13.456;2023-04-15T01:59:16;19.70;59.90
11214;DHT22;5664;48.606;13.456;2023-04-15T02:01:42;19.50;60.00
11214;DHT22;5664;48.606;13.456;2023-04-15T02:04:07;19.70;60.00
11214;DHT22;5664;48.606;13.456;2023-04-15T02:06:41;19.70;60.00
11214;DHT22;5664;48.606;13.456;2023-04-15T02:09:06;19.70;60.00
11214;DHT22;5664;48.606;13.456;2023-04-15T02:11:32;19.70;60.00
11214;DHT22;5664;48.606;13.456;2023-04-15T02:13:59;19.60;60.00
11214;DHT22;5664;48.606;13.456;2023-04-15T02:16:24;19.60;59.90
11214;DHT22;5664;48.606;13.456;2023-04-15T02:18:50;19.60;60.00
11214;DHT22;5664;48.606;13.456;2023-04-15T02:21:16;19.60;60.00
11214;DHT22;5664;48.606;13.456;2023-04-15T02:23:43;19.60;60.00
11214;DHT22;5664;48.606;13.456;2023-04-15T02:26:08;19.60;60.00
11214;DHT22;5664;48.606;13.456;2023-04-15T02:28:34;19.60;60.00
11214;DHT22;5664;48.606;13.456;2023-04-15T02:31:00;19.60;60.00
11214;DHT22;5664;48.606;13.456;2023-04-15T02:33:26;19.60;60.00
11214;DHT22;5664;48.606;13.456;2023-04-15T02:35:52;19.60;60.00
11214;DHT22;5664;48.606;13.456;2023-04-15T02:38:17;19.60;60.00
11214;DHT22;5664;48.606;13.456;2023-04-15T02:40:43;19.60;60.00
11214;DHT22;5664;48.606;13.456;2023-04-15T02:43:08;19.60;60.10
11214;DHT22;5664;48.606;13.456;2023-04-15T02:45:33;19.60;60.10
11214;DHT22;5664;48.606;13.456;2023-04-15T02:47:59;19.60;60.10
11214;DHT22;5664;48.606;13.456;2023-04-15T02:50:30;19.60;60.10
11214;DHT22;5664;48.606;13.456;2023-04-15T02:52:55;19.50;60.00
11214;DHT22;5664;48.606;13.456;2023-04-15T02:55:21;19.60;60.10
11214;DHT22;5664;48.606;13.456;2023-04-15T02:57:46;19.50;60.10
11214;DHT22;5664;48.606;13.456;2023-04-15T03:00:12;19.50;60.10
11214;DHT22;5664;48.606;13.456;2023-04-15T03:02:38;19.50;60.10
11214;DHT22;5664;48.606;13.456;2023-04-15T03:05:04;19.50;60.10
11214;DHT22;5664;48.606;13.456;2023-04-15T03:07:33;19.50;60.10
11214;DHT22;5664;48.606;13.456;2023-04-15T03:09:58;19.50;60.20
11214;DHT22;5664;48.606;13.456;2023-04-15T03:12:24;19.50;60.20
11214;DHT22;5664;48.606;13.456;2023-04-15T03:14:49;19.50;60.20
11214;DHT22;5664;48.606;13.456;2023-04-15T03:17:15;19.50;60.20
11214;DHT22;5664;48.606;13.456;2023-04-15T03:19:42;19.50;60.20
11214;DHT22;5664;48.606;13.456;2023-04-15T03:22:08;19.50;60.20
11214;DHT22;5664;48.606;13.456;2023-04-15T03:24:33;19.50;60.20
11214;DHT22;5664;48.606;13.456;2023-04-15T03:26:59;19.50;60.30
11214;DHT22;5664;48.606;13.456;2023-04-15T03:29:25;19.40;60.20
11214;DHT22;5664;48.606;13.456;2023-04-15T03:31:51;19.40;60.20
11214;DHT22;5664;48.606;13.456;2023-04-15T03:34:16;19.40;60.30
11214;DHT22;5664;48.606;13.456;2023-04-15T03:36:42;19.40;60.30
11214;DHT22;5664;48.606;13.456;2023-04-15T03:39:07;19.40;60.30
11214;DHT22;5664;48.606;13.456;2023-04-15T03:41:33;19.40;60.30
11214;DHT22;5664;48.606;13.456;2023-04-15T03:43:58;19.40;60.30
11214;DHT22;5664;48.606;13.456;2023-04-15T03:46:23;19.40;60.30
11214;DHT22;5664;48.606;13.456;2023-04-15T03:48:49;19.40;60.30
11214;DHT22;5664;48.606;13.456;2023-04-15T03:51:15;19.40;60.40
11214;DHT22;5664;48.606;13.456;2023-04-15T03:53:40;19.40;60.40
11214;DHT22;5664;48.606;13.456;2023-04-15T03:56:06;19.40;60.40
11214;DHT22;5664;48.606;13.456;2023-04-15T03:58:31;19.40;60.40
11214;DHT22;5664;48.606;13.456;2023-04-15T04:00:57;19.40;60.40
11214;DHT22;5664;48.606;13.456;2023-04-15T04:03:22;19.40;60.40
11214;DHT22;5664;48.606;13.456;2023-04-15T04:05:48;19.40;60.40
11214;DHT22;5664;48.606;13.456;2023-04-15T04:08:13;19.40;60.40
11214;DHT22;5664;48.606;13.456;2023-04-15T04:10:40;19.40;60.40
11214;DHT22;5664;48.606;13.456;2023-04-15T04:13:06;19.40;60.40
11214;DHT22;5664;48.606;13.456;2023-04-15T04:15:31;19.40;60.50
11214;DHT22;5664;48.606;13.456;2023-04-15T04:17:57;19.40;60.50
11214;DHT22;5664;48.606;13.456;2023-04-15T04:20:22;19.30;60.40
11214;DHT22;5664;48.606;13.456;2023-04-15T04:22:47;19.30;60.40
11214;DHT22;5664;48.606;13.456;2023-04-15T04:25:13;19.30;60.40
11214;DHT22;5664;48.606;13.456;2023-04-15T04:27:38;19.30;60.40
11214;DHT22;5664;48.606;13.456;2023-04-15T04:30:04;19.30;60.40
11214;DHT22;5664;48.606;13.456;2023-04-15T04:32:30;19.30;60.50
11214;DHT22;5664;48.606;13.456;2023-04-15T04:34:56;19.30;60.40
11214;DHT22;5664;48.606;13.456;2023-04-15T04:37:21;19.30;60.50
11214;DHT22;5664;48.606;13.456;2023-04-15T04:39:47;19.30;60.50
11214;DHT22;5664;48.606;13.456;2023-04-15T04:42:13;19.30;60.50
11214;DHT22;5664;48.606;13.456;2023-04-15T04:44:38;19.30;60.50
11214;DHT22;5664;48.606;13.456;2023-04-15T04:47:04;19.30;60.50
11214;DHT22;5664;48.606;13.456;2023-04-15T04:49:30;19.30;60.50
11214;DHT22;5664;48.606;13.456;2023-04-15T04:51:56;19.30;60.50
11214;DHT22;5664;48.606;13.456;2023-04-15T04:54:21;19.30;60.50
11214;DHT22;5664;48.606;13.456;2023-04-15T04:56:47;19.30;60.50
11214;DHT22;5664;48.606;13.456;2023-04-15T04:59:13;19.20;60.50
11214;DHT22;5664;48.606;13.456;2023-04-15T05:01:39;19.30;60.60
11214;DHT22;5664;48.606;13.456;2023-04-15T05:04:04;19.20;60.50
11214;DHT22;5664;48.606;13.456;2023-04-15T05:06:31;19.20;60.50
11214;DHT22;5664;48.606;13.456;2023-04-15T05:08:56;19.20;60.60
11214;DHT22;5664;48.606;13.456;2023-04-15T05:11:22;19.20;61.40
11214;DHT22;5664;48.606;13.456;2023-04-15T05:13:47;19.20;60.60
11214;DHT22;5664;48.606;13.456;2023-04-15T05:16:13;19.20;60.60
11214;DHT22;5664;48.606;13.456;2023-04-15T05:18:38;19.20;60.60
11214;DHT22;5664;48.606;13.456;2023-04-15T05:21:04;19.20;60.60
11214;DHT22;5664;48.606;13.456;2023-04-15T05:23:29;19.20;60.60
11214;DHT22;5664;48.606;13.456;2023-04-15T05:25:55;19.20;61.40
11214;DHT22;5664;48.606;13.456;2023-04-15T05:28:20;19.10;60.60
11214;DHT22;5664;48.606;13.456;2023-04-15T05:30:46;19.20;60.60
11214;DHT22;5664;48.606;13.456;2023-04-15T05:33:11;19.20;60.60
11214;DHT22;5664;48.606;13.456;2023-04-15T05:35:37;19.20;60.60
11214;DHT22;5664;48.606;13.456;2023-04-15T05:38:02;19.20;60.70
11214;DHT22;5664;48.606;13.456;2023-04-15T05:40:28;19.20;60.60
11214;DHT22;5664;48.606;13.456;2023-04-15T05:42:54;19.20;60.60
11214;DHT22;5664;48.606;13.456;2023-04-15T05:45:19;19.20;60.70
11214;DHT22;5664;48.606;13.456;2023-04-15T05:47:45;19.10;60.60
11214;DHT22;5664;48.606;13.456;2023-04-15T05:50:11;19.10;60.70
11214;DHT22;5664;48.606;13.456;2023-04-15T05:52:36;19.10;60.70
11214;DHT22;5664;48.606;13.456;2023-04-15T05:55:02;19.10;60.70
11214;DHT22;5664;48.606;13.456;2023-04-15T05:57:27;19.10;60.70
11214;DHT22;5664;48.606;13.456;2023-04-15T05:59:53;19.10;60.70
11214;DHT22;5664;48.606;13.456;2023-04-15T06:02:19;19.10;60.70
11214;DHT22;5664;48.606;13.456;2023-04-15T06:04:45;19.10;60.70
11214;DHT22;5664;48.606;13.456;2023-04-15T06:07:10;19.10;60.70
11214;DHT22;5664;48.606;13.456;2023-04-15T06:09:36;19.10;60.70
11214;DHT22;5664;48.606;13.456;2023-04-15T06:12:01;19.10;60.80
11214;DHT22;5664;48.606;13.456;2023-04-15T06:14:27;19.10;60.70
11214;DHT22;5664;48.606;13.456;2023-04-15T06:16:52;19.10;60.80
11214;DHT22;5664;48.606;13.456;2023-04-15T06:19:18;19.10;60.80
11214;DHT22;5664;48.606;13.456;2023-04-15T06:21:44;19.10;60.80
11214;DHT22;5664;48.606;13.456;2023-04-15T06:24:10;19.10;60.80
11214;DHT22;5664;48.606;13.456;2023-04-15T06:26:36;19.10;60.80
11214;DHT22;5664;48.606;13.456;2023-04-15T06:29:01;19.10;60.80
11214;DHT22;5664;48.606;13.456;2023-04-15T06:31:27;19.10;60.80
11214;DHT22;5664;48.606;13.456;2023-04-15T06:33:52;19.00;60.70
11214;DHT22;5664;48.606;13.456;2023-04-15T06:36:18;19.10;60.80
11214;DHT22;5664;48.606;13.456;2023-04-15T06:38:43;19.00;60.70
11214;DHT22;5664;48.606;13.456;2023-04-15T06:41:09;19.00;60.70
11214;DHT22;5664;48.606;13.456;2023-04-15T06:43:34;19.00;60.80
11214;DHT22;5664;48.606;13.456;2023-04-15T06:46:00;19.00;60.80
11214;DHT22;5664;48.606;13.456;2023-04-15T06:48:26;19.00;60.80
11214;DHT22;5664;48.606;13.456;2023-04-15T06:50:51;19.00;60.50
11214;DHT22;5664;48.606;13.456;2023-04-15T06:53:17;19.00;60.60
11214;DHT22;5664;48.606;13.456;2023-04-15T06:55:43;19.00;60.70
11214;DHT22;5664;48.606;13.456;2023-04-15T06:58:08;19.00;60.80
11214;DHT22;5664;48.606;13.456;2023-04-15T07:00:34;19.00;60.80
11214;DHT22;5664;48.606;13.456;2023-04-15T07:02:59;19.00;60.80
11214;DHT22;5664;48.606;13.456;2023-04-15T07:05:28;19.00;60.80
11214;DHT22;5664;48.606;13.456;2023-04-15T07:07:53;19.00;60.90
11214;DHT22;5664;48.606;13.456;2023-04-15T07:10:19;19.00;60.90
11214;DHT22;5664;48.606;13.456;2023-04-15T07:12:44;19.00;60.90
11214;DHT22;5664;48.606;13.456;2023-04-15T07:15:10;19.00;60.90
11214;DHT22;5664;48.606;13.456;2023-04-15T07:17:36;19.10;60.80
11214;DHT22;5664;48.606;13.456;2023-04-15T07:20:02;19.10;60.70
11214;DHT22;5664;48.606;13.456;2023-04-15T07:22:29;19.10;60.60
11214;DHT22;5664;48.606;13.456;2023-04-15T07:24:54;19.30;60.30
11214;DHT22;5664;48.606;13.456;2023-04-15T07:27:20;19.70;59.60
11214;DHT22;5664;48.606;13.456;2023-04-15T07:29:45;20.30;58.40
11214;DHT22;5664;48.606;13.456;2023-04-15T07:32:11;21.10;56.70
11214;DHT22;5664;48.606;13.456;2023-04-15T07:34:36;21.90;54.90
11214;DHT22;5664;48.606;13.456;2023-04-15T07:37:02;22.70;53.20
11214;DHT22;5664;48.606;13.456;2023-04-15T07:39:27;23.40;51.60
11214;DHT22;5664;48.606;13.456;2023-04-15T07:41:54;24.00;50.20
11214;DHT22;5664;48.606;13.456;2023-04-15T07:44:19;24.50;49.00
11214;DHT22;5664;48.606;13.456;2023-04-15T07:46:45;24.90;48.10
11214;DHT22;5664;48.606;13.456;2023-04-15T07:49:10;25.20;46.60
11214;DHT22;5664;48.606;13.456;2023-04-15T07:51:36;25.40;45.60
11214;DHT22;5664;48.606;13.456;2023-04-15T07:54:02;25.70;45.70
11214;DHT22;5664;48.606;13.456;2023-04-15T07:56:28;26.00;45.60
11214;DHT22;5664;48.606;13.456;2023-04-15T07:58:54;26.20;45.20
11214;DHT22;5664;48.606;13.456;2023-04-15T08:01:19;26.30;44.90
11214;DHT22;5664;48.606;13.456;2023-04-15T08:03:45;26.50;44.80
11214;DHT22;5664;48.606;13.456;2023-04-15T08:06:11;26.50;44.50
11214;DHT22;5664;48.606;13.456;2023-04-15T08:08:36;26.60;44.30
11214;DHT22;5664;48.606;13.456;2023-04-15T08:11:02;26.70;44.10
11214;DHT22;5664;48.606;13.456;2023-04-15T08:13:27;26.80;44.00
11214;DHT22;5664;48.606;13.456;2023-04-15T08:18:37;26.90;43.90
11214;DHT22;5664;48.606;13.456;2023-04-15T08:21:02;26.90;43.80
11214;DHT22;5664;48.606;13.456;2023-04-15T08:23:28;27.00;43.80
11214;DHT22;5664;48.606;13.456;2023-04-15T08:25:54;27.00;43.80
11214;DHT22;5664;48.606;13.456;2023-04-15T08:28:19;27.00;43.70
11214;DHT22;5664;48.606;13.456;2023-04-15T08:30:45;27.00;43.80
11214;DHT22;5664;48.606;13.456;2023-04-15T08:33:11;27.00;43.70
11214;DHT22;5664;48.606;13.456;2023-04-15T08:35:36;27.10;43.80
11214;DHT22;5664;48.606;13.456;2023-04-15T08:38:02;27.10;43.70
11214;DHT22;5664;48.606;13.456;2023-04-15T08:40:28;27.10;43.70
11214;DHT22;5664;48.606;13.456;2023-04-15T08:43:00;27.10;43.70
11214;DHT22;5664;48.606;13.456;2023-04-15T08:45:27;27.10;43.70
11214;DHT22;5664;48.606;13.456;2023-04-15T08:47:53;27.10;43.70
11214;DHT22;5664;48.606;13.456;2023-04-15T08:50:20;27.10;43.60
11214;DHT22;5664;48.606;13.456;2023-04-15T08:52:46;27.10;43.60
11214;DHT22;5664;48.606;13.456;2023-04-15T08:55:12;27.10;43.60
11214;DHT22;5664;48.606;13.456;2023-04-15T08:57:37;27.10;43.70
11214;DHT22;5664;48.606;13.456;2023-04-15T09:00:04;27.00;43.70
11214;DHT22;5664;48.606;13.456;2023-04-15T09:02:30;27.00;43.80
11214;DHT22;5664;48.606;13.456;2023-04-15T09:04:55;27.00;43.80
11214;DHT22;5664;48.606;13.456;2023-04-15T09:07:21;27.00;43.90
11214;DHT22;5664;48.606;13.456;2023-04-15T09:09:47;26.90;43.90
11214;DHT22;5664;48.606;13.456;2023-04-15T09:12:12;26.90;43.90
11214;DHT22;5664;48.606;13.456;2023-04-15T09:14:42;26.90;44.00
11214;DHT22;5664;48.606;13.456;2023-04-15T09:17:09;26.80;44.00
11214;DHT22;5664;48.606;13.456;2023-04-15T09:19:35;26.80;44.10
11214;DHT22;5664;48.606;13.456;2023-04-15T09:22:00;26.80;44.10
11214;DHT22;5664;48.606;13.456;2023-04-15T09:24:32;26.80;44.10
11214;DHT22;5664;48.606;13.456;2023-04-15T09:27:00;26.70;44.10
11214;DHT22;5664;48.606;13.456;2023-04-15T09:29:26;26.70;44.20
11214;DHT22;5664;48.606;13.456;2023-04-15T09:31:52;26.70;44.30
11214;DHT22;5664;48.606;13.456;2023-04-15T09:34:17;26.70;44.30
11214;DHT22;5664;48.606;13.456;2023-04-15T09:39:08;26.70;44.30
11214;DHT22;5664;48.606;13.456;2023-04-15T09:41:33;26.60;44.30
11214;DHT22;5664;48.606;13.456;2023-04-15T09:43:59;26.60;44.30
11214;DHT22;5664;48.606;13.456;2023-04-15T09:46:40;26.60;44.40
11214;DHT22;5664;48.606;13.456;2023-04-15T09:49:07;26.60;44.50
11214;DHT22;5664;48.606;13.456;2023-04-15T09:51:35;26.50;44.50
11214;DHT22;5664;48.606;13.456;2023-04-15T09:54:01;26.50;44.60
11214;DHT22;5664;48.606;13.456;2023-04-15T09:56:34;26.40;44.70
11214;DHT22;5664;48.606;13.456;2023-04-15T09:59:01;26.40;44.70
11214;DHT22;5664;48.606;13.456;2023-04-15T10:01:26;26.40;44.70
11214;DHT22;5664;48.606;13.456;2023-04-15T10:03:52;26.40;44.70
11214;DHT22;5664;48.606;13.456;2023-04-15T10:06:18;26.40;44.70
11214;DHT22;5664;48.606;13.456;2023-04-15T10:08:44;26.40;44.80
11214;DHT22;5664;48.606;13.456;2023-04-15T10:11:10;26.40;44.80
11214;DHT22;5664;48.606;13.456;2023-04-15T10:13:36;26.40;44.90
11214;DHT22;5664;48.606;13.456;2023-04-15T10:18:31;26.30;44.80
11214;DHT22;5664;48.606;13.456;2023-04-15T10:20:59;26.30;44.80
11214;DHT22;5664;48.606;13.456;2023-04-15T10:23:24;26.30;44.80
11214;DHT22;5664;48.606;13.456;2023-04-15T10:25:51;26.30;45.00
11214;DHT22;5664;48.606;13.456;2023-04-15T10:28:16;26.30;45.00
11214;DHT22;5664;48.606;13.456;2023-04-15T10:30:42;26.20;45.00
11214;DHT22;5664;48.606;13.456;2023-04-15T10:33:08;26.20;45.10
11214;DHT22;5664;48.606;13.456;2023-04-15T10:35:33;26.20;45.20
11214;DHT22;5664;48.606;13.456;2023-04-15T10:38:00;26.20;45.30
11214;DHT22;5664;48.606;13.456;2023-04-15T10:40:29;26.10;45.30
11214;DHT22;5664;48.606;13.456;2023-04-15T10:42:58;26.10;45.30
11214;DHT22;5664;48.606;13.456;2023-04-15T10:45:25;26.10;45.30
11214;DHT22;5664;48.606;13.456;2023-04-15T10:47:53;26.10;45.30
11214;DHT22;5664;48.606;13.456;2023-04-15T10:50:19;26.10;45.30
11214;DHT22;5664;48.606;13.456;2023-04-15T10:52:45;26.10;45.40
11214;DHT22;5664;48.606;13.456;2023-04-15T10:55:12;26.10;45.40
11214;DHT22;5664;48.606;13.456;2023-04-15T10:57:39;26.10;45.40
11214;DHT22;5664;48.606;13.456;2023-04-15T11:05:07;26.10;45.50
11214;DHT22;5664;48.606;13.456;2023-04-15T11:09:58;26.00;45.50
11214;DHT22;5664;48.606;13.456;2023-04-15T11:12:32;26.00;45.50
11214;DHT22;5664;48.606;13.456;2023-04-15T11:14:58;26.00;45.40
11214;DHT22;5664;48.606;13.456;2023-04-15T11:17:27;26.00;45.50
11214;DHT22;5664;48.606;13.456;2023-04-15T11:19:53;26.00;45.50
11214;DHT22;5664;48.606;13.456;2023-04-15T11:22:18;26.00;45.50
11214;DHT22;5664;48.606;13.456;2023-04-15T11:24:47;26.00;45.50
11214;DHT22;5664;48.606;13.456;2023-04-15T11:27:21;26.00;45.50
11214;DHT22;5664;48.606;13.456;2023-04-15T11:29:47;26.00;45.50
11214;DHT22;5664;48.606;13.456;2023-04-15T11:32:13;26.00;45.60
11214;DHT22;5664;48.606;13.456;2023-04-15T11:34:38;25.90;45.60
11214;DHT22;5664;48.606;13.456;2023-04-15T11:37:06;25.90;45.60
11214;DHT22;5664;48.606;13.456;2023-04-15T11:39:32;25.90;45.70
11214;DHT22;5664;48.606;13.456;2023-04-15T11:41:57;25.90;45.70
11214;DHT22;5664;48.606;13.456;2023-04-15T11:44:23;25.90;45.60
11214;DHT22;5664;48.606;13.456;2023-04-15T11:46:48;25.90;45.70
11214;DHT22;5664;48.606;13.456;2023-04-15T11:49:27;25.90;45.70
11214;DHT22;5664;48.606;13.456;2023-04-15T11:51:52;25.90;45.70
11214;DHT22;5664;48.606;13.456;2023-04-15T11:54:18;25.80;45.70
11214;DHT22;5664;48.606;13.456;2023-04-15T11:56:43;25.80;45.70
11214;DHT22;5664;48.606;13.456;2023-04-15T11:59:14;25.90;45.70
11214;DHT22;5664;48.606;13.456;2023-04-15T12:01:40;25.90;45.70
11214;DHT22;5664;48.606;13.456;2023-04-15T12:04:14;25.90;45.60
11214;DHT22;5664;48.606;13.456;2023-04-15T12:06:41;25.90;45.60
11214;DHT22;5664;48.606;13.456;2023-04-15T12:09:11;26.00;45.60
11214;DHT22;5664;48.606;13.456;2023-04-15T12:16:28;25.90;45.60
11214;DHT22;5664;48.606;13.456;2023-04-15T12:18:57;26.00;45.60
11214;DHT22;5664;48.606;13.456;2023-04-15T12:21:24;25.90;45.60
11214;DHT22;5664;48.606;13.456;2023-04-15T12:23:50;25.90;45.70
11214;DHT22;5664;48.606;13.456;2023-04-15T12:26:25;25.90;45.70
11214;DHT22;5664;48.606;13.456;2023-04-15T12:28:54;25.90;45.70
11214;DHT22;5664;48.606;13.456;2023-04-15T12:31:20;25.90;45.70
11214;DHT22;5664;48.606;13.456;2023-04-15T12:33:47;25.90;45.70
11214;DHT22;5664;48.606;13.456;2023-04-15T12:36:12;25.90;45.70
11214;DHT22;5664;48.606;13.456;2023-04-15T12:38:38;25.90;45.70
11214;DHT22;5664;48.606;13.456;2023-04-15T12:41:03;25.90;45.70
11214;DHT22;5664;48.606;13.456;2023-04-15T12:43:29;25.90;45.70
11214;DHT22;5664;48.606;13.456;2023-04-15T12:45:54;25.90;46.30
11214;DHT22;5664;48.606;13.456;2023-04-15T12:48:21;25.90;45.70
11214;DHT22;5664;48.606;13.456;2023-04-15T12:50:47;25.90;45.70
11214;DHT22;5664;48.606;13.456;2023-04-15T12:53:12;25.90;45.70
11214;DHT22;5664;48.606;13.456;2023-04-15T12:55:38;25.90;45.70
11214;DHT22;5664;48.606;13.456;2023-04-15T12:58:03;25.80;45.80
11214;DHT22;5664;48.606;13.456;2023-04-15T13:00:29;25.80;45.90
11214;DHT22;5664;48.606;13.456;2023-04-15T13:02:54;25.80;45.90
11214;DHT22;5664;48.606;13.456;2023-04-15T13:05:19;25.70;45.90
11214;DHT22;5664;48.606;13.456;2023-04-15T13:07:45;25.70;46.10
11214;DHT22;5664;48.606;13.456;2023-04-15T13:10:11;25.70;46.00
11214;DHT22;5664;48.606;13.456;2023-04-15T13:12:36;25.70;46.10
11214;DHT22;5664;48.606;13.456;2023-04-15T13:15:05;25.70;46.10
11214;DHT22;5664;48.606;13.456;2023-04-15T13:17:31;25.70;46.10
11214;DHT22;5664;48.606;13.456;2023-04-15T13:19:56;25.70;46.10
11214;DHT22;5664;48.606;13.456;2023-04-15T13:22:22;25.70;46.10
11214;DHT22;5664;48.606;13.456;2023-04-15T13:24:47;25.60;46.10
11214;DHT22;5664;48.606;13.456;2023-04-15T13:27:13;25.60;46.20
11214;DHT22;5664;48.606;13.456;2023-04-15T13:29:39;25.60;46.20
11214;DHT22;5664;48.606;13.456;2023-04-15T13:32:05;25.60;46.80
11214;DHT22;5664;48.606;13.456;2023-04-15T13:34:30;25.60;46.20
11214;DHT22;5664;48.606;13.456;2023-04-15T13:36:56;25.60;46.30
11214;DHT22;5664;48.606;13.456;2023-04-15T13:39:21;25.60;46.30
11214;DHT22;5664;48.606;13.456;2023-04-15T13:41:47;25.50;46.30
11214;DHT22;5664;48.606;13.456;2023-04-15T13:44:13;25.50;46.40
11214;DHT22;5664;48.606;13.456;2023-04-15T13:46:39;25.50;46.40
11214;DHT22;5664;48.606;13.456;2023-04-15T13:49:06;25.50;46.50
11214;DHT22;5664;48.606;13.456;2023-04-15T13:51:31;25.40;46.50
11214;DHT22;5664;48.606;13.456;2023-04-15T13:53:57;25.40;46.50
11214;DHT22;5664;48.606;13.456;2023-04-15T13:56:22;25.40;46.50
11214;DHT22;5664;48.606;13.456;2023-04-15T13:58:48;25.40;46.50
11214;DHT22;5664;48.606;13.456;2023-04-15T14:01:14;25.40;46.50
11214;DHT22;5664;48.606;13.456;2023-04-15T14:03:39;25.40;46.60
11214;DHT22;5664;48.606;13.456;2023-04-15T14:06:05;25.40;46.70
11214;DHT22;5664;48.606;13.456;2023-04-15T14:08:30;25.30;46.70
11214;DHT22;5664;48.606;13.456;2023-04-15T14:10:56;25.30;46.70
11214;DHT22;5664;48.606;13.456;2023-04-15T14:13:21;25.40;46.70
11214;DHT22;5664;48.606;13.456;2023-04-15T14:15:47;25.40;46.70
11214;DHT22;5664;48.606;13.456;2023-04-15T14:18:12;25.40;46.70
11214;DHT22;5664;48.606;13.456;2023-04-15T14:20:38;25.40;46.70
11214;DHT22;5664;48.606;13.456;2023-04-15T14:23:03;25.40;46.60
11214;DHT22;5664;48.606;13.456;2023-04-15T14:25:29;25.40;46.70
11214;DHT22;5664;48.606;13.456;2023-04-15T14:27:54;25.40;46.70
11214;DHT22;5664;48.606;13.456;2023-04-15T14:30:20;25.40;46.70
11214;DHT22;5664;48.606;13.456;2023-04-15T14:32:45;25.40;46.80
11214;DHT22;5664;48.606;13.456;2023-04-15T14:35:11;25.40;46.70
11214;DHT22;5664;48.606;13.456;2023-04-15T14:37:36;25.40;46.70
11214;DHT22;5664;48.606;13.456;2023-04-15T14:40:02;25.40;46.70
11214;DHT22;5664;48.606;13.456;2023-04-15T14:42:27;25.40;46.60
11214;DHT22;5664;48.606;13.456;2023-04-15T14:44:53;25.40;46.60
11214;DHT22;5664;48.606;13.456;2023-04-15T14:47:18;25.40;46.60
11214;DHT22;5664;48.606;13.456;2023-04-15T14:49:44;25.40;46.60
11214;DHT22;5664;48.606;13.456;2023-04-15T14:52:09;25.40;46.70
11214;DHT22;5664;48.606;13.456;2023-04-15T14:54:35;25.40;46.70
11214;DHT22;5664;48.606;13.456;2023-04-15T14:57:00;25.30;46.70
11214;DHT22;5664;48.606;13.456;2023-04-15T14:59:26;25.30;46.70
11214;DHT22;5664;48.606;13.456;2023-04-15T15:01:51;25.30;46.70
11214;DHT22;5664;48.606;13.456;2023-04-15T15:04:17;25.30;46.70
11214;DHT22;5664;48.606;13.456;2023-04-15T15:06:42;25.30;46.70
11214;DHT22;5664;48.606;13.456;2023-04-15T15:09:08;25.30;46.70
11214;DHT22;5664;48.606;13.456;2023-04-15T15:11:33;25.30;46.70
11214;DHT22;5664;48.606;13.456;2023-04-15T15:13:59;25.30;46.70
11214;DHT22;5664;48.606;13.456;2023-04-15T15:16:24;25.30;46.70
11214;DHT22;5664;48.606;13.456;2023-04-15T15:18:50;25.40;46.70
11214;DHT22;5664;48.606;13.456;2023-04-15T15:21:16;25.40;46.70
11214;DHT22;5664;48.606;13.456;2023-04-15T15:23:41;25.40;46.70
11214;DHT22;5664;48.606;13.456;2023-04-15T15:26:06;25.40;46.60
11214;DHT22;5664;48.606;13.456;2023-04-15T15:28:32;25.40;46.60
11214;DHT22;5664;48.606;13.456;2023-04-15T15:30:58;25.40;46.60
11214;DHT22;5664;48.606;13.456;2023-04-15T15:33:23;25.40;46.60
11214;DHT22;5664;48.606;13.456;2023-04-15T15:35:49;25.40;46.60
11214;DHT22;5664;48.606;13.456;2023-04-15T15:38:14;25.40;46.60
11214;DHT22;5664;48.606;13.456;2023-04-15T15:40:40;25.40;46.50